sensor_id;sensor_type;location;lat;lon;timestamp;P1;durP1;ratioP1;P2;durP2;ratioP2
11425;SDS011;5769;47.998;7.788;2022-08-21T00:01:45;120.20;;;28.20;;
11425;SDS011;5769;47.998;7.788;2022-08-21T00:04:13;120.77;;;28.30;;
11425;SDS011;5769;47.998;7.788;2022-08-21T00:06:40;122.40;;;28.77;;
11425;SDS011;5769;47.998;7.788;2022-08-21T00:09:07;120.83;;;28.57;;
11425;SDS011;5769;47.998;7.788;2022-08-21T00:11:35;121.67;;;28.47;;
11425;SDS011;5769;47.998;7.788;2022-08-21T00:14:05;121.47;;;28.43;;
11425;SDS011;5769;47.998;7.788;2022-08-21T00:16:33;122.53;;;29.00;;
11425;SDS011;5769;47.998;7.788;2022-08-21T00:19:00;120.90;;;28.57;;
11425;SDS011;5769;47.998;7.788;2022-08-21T00:21:28;120.83;;;28.40;;
11425;SDS011;5769;47.998;7.788;2022-08-21T00:23:55;120.33;;;28.27;;
11425;SDS011;5769;47.998;7.788;2022-08-21T00:26:21;120.77;;;28.10;;
11425;SDS011;5769;47.998;7.788;2022-08-21T00:28:48;120.57;;;28.07;;
11425;SDS011;5769;47.998;7.788;2022-08-21T00:31:15;117.90;;;27.33;;
11425;SDS011;5769;47.998;7.788;2022-08-21T00:33:43;110.37;;;25.70;;
11425;SDS011;5769;47.998;7.788;2022-08-21T00:36:10;71.07;;;17.20;;
11425;SDS011;5769;47.998;7.788;2022-08-21T00:38:40;106.57;;;25.03;;
11425;SDS011;5769;47.998;7.788;2022-08-21T00:41:08;121.17;;;28.00;;
11425;SDS011;5769;47.998;7.788;2022-08-21T00:43:37;120.93;;;28.03;;
11425;SDS011;5769;47.998;7.788;2022-08-21T00:46:05;121.20;;;28.30;;
11425;SDS011;5769;47.998;7.788;2022-08-21T00:48:32;120.90;;;28.20;;
11425;SDS011;5769;47.998;7.788;2022-08-21T00:51:01;120.83;;;28.27;;
11425;SDS011;5769;47.998;7.788;2022-08-21T00:53:31;121.10;;;28.33;;
11425;SDS011;5769;47.998;7.788;2022-08-21T00:56:00;120.33;;;28.37;;
11425;SDS011;5769;47.998;7.788;2022-08-21T00:58:28;121.83;;;28.80;;
11425;SDS011;5769;47.998;7.788;2022-08-21T01:00:57;122.60;;;29.20;;
11425;SDS011;5769;47.998;7.788;2022-08-21T01:03:27;121.97;;;29.17;;
11425;SDS011;5769;47.998;7.788;2022-08-21T01:05:53;120.07;;;28.20;;
11425;SDS011;5769;47.998;7.788;2022-08-21T01:08:20;122.90;;;29.20;;
11425;SDS011;5769;47.998;7.788;2022-08-21T01:10:48;122.80;;;29.23;;
11425;SDS011;5769;47.998;7.788;2022-08-21T01:13:17;122.00;;;28.93;;
11425;SDS011;5769;47.998;7.788;2022-08-21T01:15:46;122.13;;;28.93;;
11425;SDS011;5769;47.998;7.788;2022-08-21T01:18:17;121.10;;;28.47;;
11425;SDS011;5769;47.998;7.788;2022-08-21T01:20:52;122.10;;;28.70;;
11425;SDS011;5769;47.998;7.788;2022-08-21T01:23:25;121.57;;;29.40;;
11425;SDS011;5769;47.998;7.788;2022-08-21T01:25:51;122.30;;;29.20;;
11425;SDS011;5769;47.998;7.788;2022-08-21T01:28:18;121.70;;;28.77;;
11425;SDS011;5769;47.998;7.788;2022-08-21T01:30:47;122.83;;;29.30;;
11425;SDS011;5769;47.998;7.788;2022-08-21T01:33:16;122.93;;;29.37;;
11425;SDS011;5769;47.998;7.788;2022-08-21T01:35:44;122.73;;;29.20;;
11425;SDS011;5769;47.998;7.788;2022-08-21T01:38:12;122.83;;;29.20;;
11425;SDS011;5769;47.998;7.788;2022-08-21T01:40:39;122.97;;;29.43;;
11425;SDS011;5769;47.998;7.788;2022-08-21T01:43:05;122.47;;;29.27;;
11425;SDS011;5769;47.998;7.788;2022-08-21T01:45:32;121.80;;;28.93;;
11425;SDS011;5769;47.998;7.788;2022-08-21T01:47:59;121.43;;;28.50;;
11425;SDS011;5769;47.998;7.788;2022-08-21T01:50:27;120.63;;;28.40;;
11425;SDS011;5769;47.998;7.788;2022-08-21T01:52:54;120.80;;;28.33;;
11425;SDS011;5769;47.998;7.788;2022-08-21T01:55:22;121.27;;;28.40;;
11425;SDS011;5769;47.998;7.788;2022-08-21T01:57:50;104.43;;;24.87;;
11425;SDS011;5769;47.998;7.788;2022-08-21T02:00:18;110.67;;;25.97;;
11425;SDS011;5769;47.998;7.788;2022-08-21T02:02:47;99.40;;;23.20;;
11425;SDS011;5769;47.998;7.788;2022-08-21T02:05:15;83.00;;;19.70;;
11425;SDS011;5769;47.998;7.788;2022-08-21T02:07:44;120.57;;;28.10;;
11425;SDS011;5769;47.998;7.788;2022-08-21T02:10:13;93.43;;;22.43;;
11425;SDS011;5769;47.998;7.788;2022-08-21T02:12:43;122.00;;;29.07;;
11425;SDS011;5769;47.998;7.788;2022-08-21T02:15:10;122.90;;;29.30;;
11425;SDS011;5769;47.998;7.788;2022-08-21T02:17:38;122.37;;;29.07;;
11425;SDS011;5769;47.998;7.788;2022-08-21T02:20:07;121.27;;;28.70;;
11425;SDS011;5769;47.998;7.788;2022-08-21T02:22:35;120.90;;;28.47;;
11425;SDS011;5769;47.998;7.788;2022-08-21T02:25:02;121.30;;;28.50;;
11425;SDS011;5769;47.998;7.788;2022-08-21T02:27:36;121.40;;;28.57;;
11425;SDS011;5769;47.998;7.788;2022-08-21T02:30:06;121.33;;;28.60;;
11425;SDS011;5769;47.998;7.788;2022-08-21T02:32:34;120.23;;;28.30;;
11425;SDS011;5769;47.998;7.788;2022-08-21T02:35:01;121.20;;;28.53;;
11425;SDS011;5769;47.998;7.788;2022-08-21T02:37:28;121.60;;;28.63;;
11425;SDS011;5769;47.998;7.788;2022-08-21T02:39:55;118.90;;;28.27;;
11425;SDS011;5769;47.998;7.788;2022-08-21T02:42:22;91.77;;;22.10;;
11425;SDS011;5769;47.998;7.788;2022-08-21T02:44:48;122.73;;;29.20;;
11425;SDS011;5769;47.998;7.788;2022-08-21T02:47:17;121.67;;;29.30;;
11425;SDS011;5769;47.998;7.788;2022-08-21T02:49:44;122.33;;;29.40;;
11425;SDS011;5769;47.998;7.788;2022-08-21T02:52:10;102.70;;;24.73;;
11425;SDS011;5769;47.998;7.788;2022-08-21T02:54:37;113.13;;;27.27;;
11425;SDS011;5769;47.998;7.788;2022-08-21T02:57:04;93.43;;;22.83;;
11425;SDS011;5769;47.998;7.788;2022-08-21T02:59:31;94.47;;;23.47;;
11425;SDS011;5769;47.998;7.788;2022-08-21T03:01:58;93.87;;;22.67;;
11425;SDS011;5769;47.998;7.788;2022-08-21T03:04:26;109.10;;;26.37;;
11425;SDS011;5769;47.998;7.788;2022-08-21T03:06:52;120.93;;;29.30;;
11425;SDS011;5769;47.998;7.788;2022-08-21T03:09:19;120.07;;;29.20;;
11425;SDS011;5769;47.998;7.788;2022-08-21T03:11:46;117.30;;;28.97;;
11425;SDS011;5769;47.998;7.788;2022-08-21T03:14:13;118.37;;;29.20;;
11425;SDS011;5769;47.998;7.788;2022-08-21T03:16:40;105.60;;;25.23;;
11425;SDS011;5769;47.998;7.788;2022-08-21T03:19:07;117.37;;;28.80;;
11425;SDS011;5769;47.998;7.788;2022-08-21T03:21:35;116.93;;;29.20;;
11425;SDS011;5769;47.998;7.788;2022-08-21T03:24:02;119.37;;;29.10;;
11425;SDS011;5769;47.998;7.788;2022-08-21T03:26:30;116.90;;;29.10;;
11425;SDS011;5769;47.998;7.788;2022-08-21T03:28:56;117.17;;;29.00;;
11425;SDS011;5769;47.998;7.788;2022-08-21T03:31:23;117.67;;;29.20;;
11425;SDS011;5769;47.998;7.788;2022-08-21T03:33:53;115.80;;;29.10;;
11425;SDS011;5769;47.998;7.788;2022-08-21T03:36:20;118.87;;;29.23;;
11425;SDS011;5769;47.998;7.788;2022-08-21T03:38:48;123.50;;;29.43;;
11425;SDS011;5769;47.998;7.788;2022-08-21T03:41:15;120.73;;;29.40;;
11425;SDS011;5769;47.998;7.788;2022-08-21T03:43:42;115.27;;;29.10;;
11425;SDS011;5769;47.998;7.788;2022-08-21T03:46:09;113.27;;;29.00;;
11425;SDS011;5769;47.998;7.788;2022-08-21T03:48:38;111.37;;;29.00;;
11425;SDS011;5769;47.998;7.788;2022-08-21T03:51:05;110.93;;;28.90;;
11425;SDS011;5769;47.998;7.788;2022-08-21T03:53:33;110.30;;;28.90;;
11425;SDS011;5769;47.998;7.788;2022-08-21T03:56:02;109.50;;;28.87;;
11425;SDS011;5769;47.998;7.788;2022-08-21T03:58:30;108.07;;;28.50;;
11425;SDS011;5769;47.998;7.788;2022-08-21T04:00:58;110.17;;;28.90;;
11425;SDS011;5769;47.998;7.788;2022-08-21T04:03:26;111.30;;;28.87;;
11425;SDS011;5769;47.998;7.788;2022-08-21T04:05:53;109.23;;;28.73;;
11425;SDS011;5769;47.998;7.788;2022-08-21T04:08:20;107.93;;;28.70;;
11425;SDS011;5769;47.998;7.788;2022-08-21T04:10:47;111.90;;;28.90;;
11425;SDS011;5769;47.998;7.788;2022-08-21T04:13:18;107.03;;;28.50;;
11425;SDS011;5769;47.998;7.788;2022-08-21T04:15:45;108.20;;;28.70;;
11425;SDS011;5769;47.998;7.788;2022-08-21T04:18:12;106.63;;;28.67;;
11425;SDS011;5769;47.998;7.788;2022-08-21T04:20:39;108.60;;;28.60;;
11425;SDS011;5769;47.998;7.788;2022-08-21T04:23:07;107.57;;;28.60;;
11425;SDS011;5769;47.998;7.788;2022-08-21T04:25:34;108.60;;;28.63;;
11425;SDS011;5769;47.998;7.788;2022-08-21T04:28:01;107.37;;;28.60;;
11425;SDS011;5769;47.998;7.788;2022-08-21T04:30:30;104.80;;;28.60;;
11425;SDS011;5769;47.998;7.788;2022-08-21T04:32:58;102.23;;;28.80;;
11425;SDS011;5769;47.998;7.788;2022-08-21T04:35:26;106.43;;;29.03;;
11425;SDS011;5769;47.998;7.788;2022-08-21T04:37:53;106.40;;;28.60;;
11425;SDS011;5769;47.998;7.788;2022-08-21T04:40:20;106.13;;;28.70;;
11425;SDS011;5769;47.998;7.788;2022-08-21T04:42:49;106.50;;;28.60;;
11425;SDS011;5769;47.998;7.788;2022-08-21T04:45:19;105.20;;;29.00;;
11425;SDS011;5769;47.998;7.788;2022-08-21T04:47:54;105.83;;;28.80;;
11425;SDS011;5769;47.998;7.788;2022-08-21T04:50:22;106.03;;;28.70;;
11425;SDS011;5769;47.998;7.788;2022-08-21T04:52:53;105.93;;;28.70;;
11425;SDS011;5769;47.998;7.788;2022-08-21T04:55:21;108.57;;;28.70;;
11425;SDS011;5769;47.998;7.788;2022-08-21T04:57:52;107.40;;;28.60;;
11425;SDS011;5769;47.998;7.788;2022-08-21T05:00:19;106.30;;;28.60;;
11425;SDS011;5769;47.998;7.788;2022-08-21T05:02:49;103.87;;;28.80;;
11425;SDS011;5769;47.998;7.788;2022-08-21T05:05:20;103.23;;;28.87;;
11425;SDS011;5769;47.998;7.788;2022-08-21T05:07:47;106.47;;;28.80;;
11425;SDS011;5769;47.998;7.788;2022-08-21T05:10:15;106.80;;;28.60;;
11425;SDS011;5769;47.998;7.788;2022-08-21T05:12:42;106.93;;;28.60;;
11425;SDS011;5769;47.998;7.788;2022-08-21T05:15:10;106.90;;;28.80;;
11425;SDS011;5769;47.998;7.788;2022-08-21T05:17:37;105.80;;;28.70;;
11425;SDS011;5769;47.998;7.788;2022-08-21T05:20:04;105.70;;;28.80;;
11425;SDS011;5769;47.998;7.788;2022-08-21T05:22:33;105.10;;;28.87;;
11425;SDS011;5769;47.998;7.788;2022-08-21T05:25:00;104.40;;;28.90;;
11425;SDS011;5769;47.998;7.788;2022-08-21T05:27:26;105.17;;;28.93;;
11425;SDS011;5769;47.998;7.788;2022-08-21T05:29:54;105.00;;;28.90;;
11425;SDS011;5769;47.998;7.788;2022-08-21T05:32:21;104.40;;;28.80;;
11425;SDS011;5769;47.998;7.788;2022-08-21T05:34:48;104.30;;;28.93;;
11425;SDS011;5769;47.998;7.788;2022-08-21T05:37:15;102.30;;;28.80;;
11425;SDS011;5769;47.998;7.788;2022-08-21T05:39:45;101.67;;;28.90;;
11425;SDS011;5769;47.998;7.788;2022-08-21T05:42:14;101.60;;;28.83;;
11425;SDS011;5769;47.998;7.788;2022-08-21T05:44:41;101.47;;;28.77;;
11425;SDS011;5769;47.998;7.788;2022-08-21T05:47:09;99.90;;;28.70;;
11425;SDS011;5769;47.998;7.788;2022-08-21T05:49:37;96.73;;;28.87;;
11425;SDS011;5769;47.998;7.788;2022-08-21T05:52:04;99.00;;;28.67;;
11425;SDS011;5769;47.998;7.788;2022-08-21T05:54:33;100.37;;;28.90;;
11425;SDS011;5769;47.998;7.788;2022-08-21T05:57:04;99.90;;;28.70;;
11425;SDS011;5769;47.998;7.788;2022-08-21T05:59:33;97.67;;;28.80;;
11425;SDS011;5769;47.998;7.788;2022-08-21T06:02:00;97.30;;;28.70;;
11425;SDS011;5769;47.998;7.788;2022-08-21T06:04:27;98.23;;;28.93;;
11425;SDS011;5769;47.998;7.788;2022-08-21T06:06:54;94.50;;;28.60;;
11425;SDS011;5769;47.998;7.788;2022-08-21T06:09:21;88.80;;;28.60;;
11425;SDS011;5769;47.998;7.788;2022-08-21T06:11:47;87.50;;;28.20;;
11425;SDS011;5769;47.998;7.788;2022-08-21T06:14:16;87.50;;;28.33;;
11425;SDS011;5769;47.998;7.788;2022-08-21T06:16:42;87.40;;;28.63;;
11425;SDS011;5769;47.998;7.788;2022-08-21T06:19:10;87.07;;;28.33;;
11425;SDS011;5769;47.998;7.788;2022-08-21T06:21:36;87.37;;;28.47;;
11425;SDS011;5769;47.998;7.788;2022-08-21T06:24:03;86.87;;;28.40;;
11425;SDS011;5769;47.998;7.788;2022-08-21T06:26:31;86.60;;;28.63;;
11425;SDS011;5769;47.998;7.788;2022-08-21T06:28:57;86.40;;;28.30;;
11425;SDS011;5769;47.998;7.788;2022-08-21T06:31:26;86.33;;;28.37;;
11425;SDS011;5769;47.998;7.788;2022-08-21T06:33:53;86.40;;;28.43;;
11425;SDS011;5769;47.998;7.788;2022-08-21T06:36:20;86.30;;;28.40;;
11425;SDS011;5769;47.998;7.788;2022-08-21T06:38:47;86.10;;;28.40;;
11425;SDS011;5769;47.998;7.788;2022-08-21T06:41:14;85.97;;;28.43;;
11425;SDS011;5769;47.998;7.788;2022-08-21T06:43:41;86.17;;;28.63;;
11425;SDS011;5769;47.998;7.788;2022-08-21T06:46:08;85.77;;;28.40;;
11425;SDS011;5769;47.998;7.788;2022-08-21T06:48:36;85.97;;;28.57;;
11425;SDS011;5769;47.998;7.788;2022-08-21T06:51:03;85.67;;;28.30;;
11425;SDS011;5769;47.998;7.788;2022-08-21T06:53:30;85.70;;;28.53;;
11425;SDS011;5769;47.998;7.788;2022-08-21T06:55:57;86.03;;;28.37;;
11425;SDS011;5769;47.998;7.788;2022-08-21T06:58:24;85.47;;;28.57;;
11425;SDS011;5769;47.998;7.788;2022-08-21T07:00:51;85.60;;;28.57;;
11425;SDS011;5769;47.998;7.788;2022-08-21T07:03:22;85.30;;;28.53;;
11425;SDS011;5769;47.998;7.788;2022-08-21T07:05:51;84.87;;;28.53;;
11425;SDS011;5769;47.998;7.788;2022-08-21T07:08:18;84.90;;;28.63;;
11425;SDS011;5769;47.998;7.788;2022-08-21T07:10:46;84.60;;;28.40;;
11425;SDS011;5769;47.998;7.788;2022-08-21T07:13:14;84.50;;;28.63;;
11425;SDS011;5769;47.998;7.788;2022-08-21T07:15:41;84.60;;;28.73;;
11425;SDS011;5769;47.998;7.788;2022-08-21T07:20:34;84.80;;;28.63;;
11425;SDS011;5769;47.998;7.788;2022-08-21T07:23:03;84.37;;;28.47;;
11425;SDS011;5769;47.998;7.788;2022-08-21T07:25:33;84.30;;;28.53;;
11425;SDS011;5769;47.998;7.788;2022-08-21T07:28:00;84.93;;;28.53;;
11425;SDS011;5769;47.998;7.788;2022-08-21T07:30:27;84.77;;;28.57;;
11425;SDS011;5769;47.998;7.788;2022-08-21T07:32:54;84.30;;;28.57;;
11425;SDS011;5769;47.998;7.788;2022-08-21T07:35:21;84.33;;;28.27;;
11425;SDS011;5769;47.998;7.788;2022-08-21T07:37:48;84.70;;;28.63;;
11425;SDS011;5769;47.998;7.788;2022-08-21T07:40:17;84.47;;;28.30;;
11425;SDS011;5769;47.998;7.788;2022-08-21T07:42:45;84.20;;;28.27;;
11425;SDS011;5769;47.998;7.788;2022-08-21T07:45:15;84.30;;;28.63;;
11425;SDS011;5769;47.998;7.788;2022-08-21T07:47:42;84.23;;;28.40;;
11425;SDS011;5769;47.998;7.788;2022-08-21T07:50:09;84.10;;;28.47;;
11425;SDS011;5769;47.998;7.788;2022-08-21T07:52:37;84.00;;;28.27;;
11425;SDS011;5769;47.998;7.788;2022-08-21T07:55:05;83.80;;;28.53;;
11425;SDS011;5769;47.998;7.788;2022-08-21T07:57:34;83.90;;;28.40;;
11425;SDS011;5769;47.998;7.788;2022-08-21T08:00:00;83.90;;;28.40;;
11425;SDS011;5769;47.998;7.788;2022-08-21T08:02:28;83.60;;;28.37;;
11425;SDS011;5769;47.998;7.788;2022-08-21T08:04:58;83.40;;;28.53;;
11425;SDS011;5769;47.998;7.788;2022-08-21T08:07:25;83.57;;;28.33;;
11425;SDS011;5769;47.998;7.788;2022-08-21T08:09:52;83.80;;;28.73;;
11425;SDS011;5769;47.998;7.788;2022-08-21T08:12:19;83.67;;;28.47;;
11425;SDS011;5769;47.998;7.788;2022-08-21T08:14:47;83.40;;;28.37;;
11425;SDS011;5769;47.998;7.788;2022-08-21T08:17:14;83.20;;;28.70;;
11425;SDS011;5769;47.998;7.788;2022-08-21T08:19:40;83.47;;;28.53;;
11425;SDS011;5769;47.998;7.788;2022-08-21T08:22:12;83.37;;;28.40;;
11425;SDS011;5769;47.998;7.788;2022-08-21T08:24:39;83.50;;;28.53;;
11425;SDS011;5769;47.998;7.788;2022-08-21T08:27:06;83.80;;;28.67;;
11425;SDS011;5769;47.998;7.788;2022-08-21T08:29:33;83.70;;;28.63;;
11425;SDS011;5769;47.998;7.788;2022-08-21T08:32:01;83.50;;;28.63;;
11425;SDS011;5769;47.998;7.788;2022-08-21T08:34:29;83.07;;;28.60;;
11425;SDS011;5769;47.998;7.788;2022-08-21T08:36:56;83.10;;;28.43;;
11425;SDS011;5769;47.998;7.788;2022-08-21T08:39:23;83.37;;;28.43;;
11425;SDS011;5769;47.998;7.788;2022-08-21T08:41:51;83.03;;;28.73;;
11425;SDS011;5769;47.998;7.788;2022-08-21T08:44:24;83.00;;;28.37;;
11425;SDS011;5769;47.998;7.788;2022-08-21T08:46:51;83.20;;;28.67;;
11425;SDS011;5769;47.998;7.788;2022-08-21T08:49:20;82.83;;;28.70;;
11425;SDS011;5769;47.998;7.788;2022-08-21T08:51:53;82.90;;;28.33;;
11425;SDS011;5769;47.998;7.788;2022-08-21T08:54:26;83.00;;;28.57;;
11425;SDS011;5769;47.998;7.788;2022-08-21T08:56:57;82.80;;;28.47;;
11425;SDS011;5769;47.998;7.788;2022-08-21T08:59:26;82.97;;;28.37;;
11425;SDS011;5769;47.998;7.788;2022-08-21T09:02:04;83.00;;;28.77;;
11425;SDS011;5769;47.998;7.788;2022-08-21T09:04:32;83.00;;;28.77;;
11425;SDS011;5769;47.998;7.788;2022-08-21T09:07:01;82.83;;;28.73;;
11425;SDS011;5769;47.998;7.788;2022-08-21T09:09:40;82.80;;;28.53;;
11425;SDS011;5769;47.998;7.788;2022-08-21T09:12:27;82.87;;;28.90;;
11425;SDS011;5769;47.998;7.788;2022-08-21T09:15:03;83.17;;;28.90;;
11425;SDS011;5769;47.998;7.788;2022-08-21T09:17:40;82.77;;;28.63;;
11425;SDS011;5769;47.998;7.788;2022-08-21T09:20:32;82.55;;;28.60;;
11425;SDS011;5769;47.998;7.788;2022-08-21T09:23:07;82.60;;;28.47;;
11425;SDS011;5769;47.998;7.788;2022-08-21T09:25:46;82.83;;;28.73;;
11425;SDS011;5769;47.998;7.788;2022-08-21T09:28:20;82.83;;;28.73;;
11425;SDS011;5769;47.998;7.788;2022-08-21T09:30:47;82.87;;;28.77;;
11425;SDS011;5769;47.998;7.788;2022-08-21T09:33:16;82.73;;;28.70;;
11425;SDS011;5769;47.998;7.788;2022-08-21T09:35:55;82.77;;;28.57;;
11425;SDS011;5769;47.998;7.788;2022-08-21T09:38:26;82.90;;;28.83;;
11425;SDS011;5769;47.998;7.788;2022-08-21T09:40:57;82.80;;;28.47;;
11425;SDS011;5769;47.998;7.788;2022-08-21T09:43:26;82.80;;;28.67;;
11425;SDS011;5769;47.998;7.788;2022-08-21T09:46:02;82.80;;;28.67;;
11425;SDS011;5769;47.998;7.788;2022-08-21T09:48:38;82.90;;;28.80;;
11425;SDS011;5769;47.998;7.788;2022-08-21T09:51:09;82.60;;;28.43;;
11425;SDS011;5769;47.998;7.788;2022-08-21T09:53:38;82.67;;;28.67;;
11425;SDS011;5769;47.998;7.788;2022-08-21T09:56:16;82.40;;;28.43;;
11425;SDS011;5769;47.998;7.788;2022-08-21T09:59:12;82.53;;;28.63;;
11425;SDS011;5769;47.998;7.788;2022-08-21T10:01:42;82.53;;;28.50;;
11425;SDS011;5769;47.998;7.788;2022-08-21T10:04:10;82.57;;;28.47;;
11425;SDS011;5769;47.998;7.788;2022-08-21T10:06:39;82.17;;;28.30;;
11425;SDS011;5769;47.998;7.788;2022-08-21T10:09:08;82.10;;;28.70;;
11425;SDS011;5769;47.998;7.788;2022-08-21T10:11:37;82.27;;;28.73;;
11425;SDS011;5769;47.998;7.788;2022-08-21T10:14:11;82.30;;;28.43;;
11425;SDS011;5769;47.998;7.788;2022-08-21T10:16:48;82.17;;;28.67;;
11425;SDS011;5769;47.998;7.788;2022-08-21T10:19:26;82.00;;;28.33;;
11425;SDS011;5769;47.998;7.788;2022-08-21T10:22:05;82.03;;;28.37;;
11425;SDS011;5769;47.998;7.788;2022-08-21T10:24:41;82.23;;;28.47;;
11425;SDS011;5769;47.998;7.788;2022-08-21T10:27:24;82.07;;;28.63;;
11425;SDS011;5769;47.998;7.788;2022-08-21T10:30:02;81.97;;;28.73;;
11425;SDS011;5769;47.998;7.788;2022-08-21T10:32:36;82.10;;;28.47;;
11425;SDS011;5769;47.998;7.788;2022-08-21T10:35:29;82.00;;;28.43;;
11425;SDS011;5769;47.998;7.788;2022-08-21T10:38:04;82.00;;;28.67;;
11425;SDS011;5769;47.998;7.788;2022-08-21T10:40:51;82.00;;;28.83;;
11425;SDS011;5769;47.998;7.788;2022-08-21T10:43:26;81.97;;;28.70;;
11425;SDS011;5769;47.998;7.788;2022-08-21T10:46:02;81.73;;;28.77;;
11425;SDS011;5769;47.998;7.788;2022-08-21T10:48:41;81.60;;;28.50;;
11425;SDS011;5769;47.998;7.788;2022-08-21T10:51:14;81.50;;;28.47;;
11425;SDS011;5769;47.998;7.788;2022-08-21T10:53:50;81.73;;;28.80;;
11425;SDS011;5769;47.998;7.788;2022-08-21T10:56:25;81.73;;;28.47;;
11425;SDS011;5769;47.998;7.788;2022-08-21T10:58:59;81.87;;;28.53;;
11425;SDS011;5769;47.998;7.788;2022-08-21T11:01:31;81.70;;;28.80;;
11425;SDS011;5769;47.998;7.788;2022-08-21T11:04:20;81.83;;;28.73;;
11425;SDS011;5769;47.998;7.788;2022-08-21T11:06:52;81.40;;;28.73;;
11425;SDS011;5769;47.998;7.788;2022-08-21T11:09:26;81.77;;;28.73;;
11425;SDS011;5769;47.998;7.788;2022-08-21T11:11:54;81.87;;;28.83;;
11425;SDS011;5769;47.998;7.788;2022-08-21T11:14:30;81.50;;;28.40;;
11425;SDS011;5769;47.998;7.788;2022-08-21T11:17:06;81.50;;;28.40;;
11425;SDS011;5769;47.998;7.788;2022-08-21T11:19:36;82.03;;;28.40;;
11425;SDS011;5769;47.998;7.788;2022-08-21T11:22:11;82.40;;;28.70;;
11425;SDS011;5769;47.998;7.788;2022-08-21T11:24:46;82.37;;;28.77;;
11425;SDS011;5769;47.998;7.788;2022-08-21T11:27:20;82.03;;;28.43;;
11425;SDS011;5769;47.998;7.788;2022-08-21T11:29:50;82.20;;;28.47;;
11425;SDS011;5769;47.998;7.788;2022-08-21T11:32:24;82.20;;;28.37;;
11425;SDS011;5769;47.998;7.788;2022-08-21T11:35:10;82.43;;;28.67;;
11425;SDS011;5769;47.998;7.788;2022-08-21T11:37:53;82.07;;;28.53;;
11425;SDS011;5769;47.998;7.788;2022-08-21T11:40:34;81.97;;;28.37;;
11425;SDS011;5769;47.998;7.788;2022-08-21T11:43:12;81.83;;;28.37;;
11425;SDS011;5769;47.998;7.788;2022-08-21T11:45:47;81.73;;;28.67;;
11425;SDS011;5769;47.998;7.788;2022-08-21T11:48:23;81.80;;;28.63;;
11425;SDS011;5769;47.998;7.788;2022-08-21T11:51:00;82.07;;;28.43;;
11425;SDS011;5769;47.998;7.788;2022-08-21T11:53:33;81.77;;;28.53;;
11425;SDS011;5769;47.998;7.788;2022-08-21T11:56:08;81.60;;;28.43;;
11425;SDS011;5769;47.998;7.788;2022-08-21T11:58:38;81.73;;;28.43;;
11425;SDS011;5769;47.998;7.788;2022-08-21T12:01:09;81.83;;;28.70;;
11425;SDS011;5769;47.998;7.788;2022-08-21T12:03:44;81.80;;;28.63;;
11425;SDS011;5769;47.998;7.788;2022-08-21T12:06:27;81.83;;;28.80;;
11425;SDS011;5769;47.998;7.788;2022-08-21T12:08:57;81.97;;;28.80;;
11425;SDS011;5769;47.998;7.788;2022-08-21T12:11:27;81.70;;;28.40;;
11425;SDS011;5769;47.998;7.788;2022-08-21T12:13:55;81.93;;;28.73;;
11425;SDS011;5769;47.998;7.788;2022-08-21T12:16:30;81.33;;;28.50;;
11425;SDS011;5769;47.998;7.788;2022-08-21T12:19:03;81.53;;;28.73;;
11425;SDS011;5769;47.998;7.788;2022-08-21T12:21:31;81.57;;;28.80;;
11425;SDS011;5769;47.998;7.788;2022-08-21T12:24:00;81.30;;;28.47;;
11425;SDS011;5769;47.998;7.788;2022-08-21T12:26:33;81.40;;;28.90;;
11425;SDS011;5769;47.998;7.788;2022-08-21T12:29:04;81.67;;;28.90;;
11425;SDS011;5769;47.998;7.788;2022-08-21T12:31:36;81.23;;;28.93;;
11425;SDS011;5769;47.998;7.788;2022-08-21T12:34:15;81.27;;;28.63;;
11425;SDS011;5769;47.998;7.788;2022-08-21T12:36:44;80.90;;;28.43;;
11425;SDS011;5769;47.998;7.788;2022-08-21T12:39:13;81.10;;;28.53;;
11425;SDS011;5769;47.998;7.788;2022-08-21T12:41:47;80.97;;;28.67;;
11425;SDS011;5769;47.998;7.788;2022-08-21T12:44:17;80.57;;;28.90;;
11425;SDS011;5769;47.998;7.788;2022-08-21T12:46:51;80.63;;;28.87;;
11425;SDS011;5769;47.998;7.788;2022-08-21T12:49:24;80.57;;;28.43;;
11425;SDS011;5769;47.998;7.788;2022-08-21T12:51:57;80.73;;;28.83;;
11425;SDS011;5769;47.998;7.788;2022-08-21T12:54:29;80.80;;;28.83;;
11425;SDS011;5769;47.998;7.788;2022-08-21T12:57:00;80.53;;;28.33;;
11425;SDS011;5769;47.998;7.788;2022-08-21T12:59:28;80.77;;;28.43;;
11425;SDS011;5769;47.998;7.788;2022-08-21T13:01:56;80.53;;;28.57;;
11425;SDS011;5769;47.998;7.788;2022-08-21T13:04:28;80.80;;;28.57;;
11425;SDS011;5769;47.998;7.788;2022-08-21T13:07:01;80.80;;;28.87;;
11425;SDS011;5769;47.998;7.788;2022-08-21T13:09:36;80.70;;;28.43;;
11425;SDS011;5769;47.998;7.788;2022-08-21T13:12:09;81.00;;;28.90;;
11425;SDS011;5769;47.998;7.788;2022-08-21T13:14:38;81.13;;;28.83;;
11425;SDS011;5769;47.998;7.788;2022-08-21T13:17:06;81.13;;;28.77;;
11425;SDS011;5769;47.998;7.788;2022-08-21T13:19:34;81.30;;;28.80;;
11425;SDS011;5769;47.998;7.788;2022-08-21T13:22:01;81.40;;;28.77;;
11425;SDS011;5769;47.998;7.788;2022-08-21T13:24:29;80.60;;;28.57;;
11425;SDS011;5769;47.998;7.788;2022-08-21T13:26:58;80.97;;;28.47;;
11425;SDS011;5769;47.998;7.788;2022-08-21T13:29:29;81.07;;;28.87;;
11425;SDS011;5769;47.998;7.788;2022-08-21T13:31:57;81.07;;;28.87;;
11425;SDS011;5769;47.998;7.788;2022-08-21T13:34:33;80.97;;;28.73;;
11425;SDS011;5769;47.998;7.788;2022-08-21T13:37:03;81.10;;;29.00;;
11425;SDS011;5769;47.998;7.788;2022-08-21T13:39:31;80.77;;;28.53;;
11425;SDS011;5769;47.998;7.788;2022-08-21T13:41:59;80.67;;;28.53;;
11425;SDS011;5769;47.998;7.788;2022-08-21T13:44:34;80.97;;;28.83;;
11425;SDS011;5769;47.998;7.788;2022-08-21T13:47:05;81.03;;;29.00;;
11425;SDS011;5769;47.998;7.788;2022-08-21T13:49:39;80.67;;;28.90;;
11425;SDS011;5769;47.998;7.788;2022-08-21T13:52:13;80.97;;;28.57;;
11425;SDS011;5769;47.998;7.788;2022-08-21T13:54:41;81.17;;;28.93;;
11425;SDS011;5769;47.998;7.788;2022-08-21T13:57:15;81.30;;;28.50;;
11425;SDS011;5769;47.998;7.788;2022-08-21T13:59:44;81.17;;;28.57;;
11425;SDS011;5769;47.998;7.788;2022-08-21T14:02:13;81.07;;;28.80;;
11425;SDS011;5769;47.998;7.788;2022-08-21T14:04:42;81.03;;;28.80;;
11425;SDS011;5769;47.998;7.788;2022-08-21T14:07:17;81.17;;;28.73;;
11425;SDS011;5769;47.998;7.788;2022-08-21T14:09:46;80.97;;;28.43;;
11425;SDS011;5769;47.998;7.788;2022-08-21T14:12:15;81.07;;;28.53;;
11425;SDS011;5769;47.998;7.788;2022-08-21T14:14:46;80.97;;;28.80;;
11425;SDS011;5769;47.998;7.788;2022-08-21T14:17:14;81.23;;;28.93;;
11425;SDS011;5769;47.998;7.788;2022-08-21T14:19:53;81.20;;;28.73;;
11425;SDS011;5769;47.998;7.788;2022-08-21T14:22:27;81.67;;;28.43;;
11425;SDS011;5769;47.998;7.788;2022-08-21T14:25:01;81.53;;;28.87;;
11425;SDS011;5769;47.998;7.788;2022-08-21T14:27:31;81.13;;;28.47;;
11425;SDS011;5769;47.998;7.788;2022-08-21T14:30:03;81.17;;;28.63;;
11425;SDS011;5769;47.998;7.788;2022-08-21T14:32:36;80.57;;;28.37;;
11425;SDS011;5769;47.998;7.788;2022-08-21T14:35:05;79.07;;;28.37;;
11425;SDS011;5769;47.998;7.788;2022-08-21T14:37:32;78.63;;;28.83;;
11425;SDS011;5769;47.998;7.788;2022-08-21T14:40:00;78.63;;;28.87;;
11425;SDS011;5769;47.998;7.788;2022-08-21T14:42:27;77.90;;;28.63;;
11425;SDS011;5769;47.998;7.788;2022-08-21T14:44:55;78.17;;;28.47;;
11425;SDS011;5769;47.998;7.788;2022-08-21T14:47:27;77.73;;;28.57;;